createdAt,value
2019-05-15T00:01:54.615Z,13.13
2019-05-15T00:04:30.558Z,12.10
2019-05-15T00:07:08.813Z,14.30
2019-05-15T00:09:44.163Z,13.32
2019-05-15T00:12:20.273Z,13.20
2019-05-15T00:14:58.088Z,13.58
2019-05-15T00:17:33.925Z,13.95
2019-05-15T00:20:10.600Z,14.95
2019-05-15T00:22:48.410Z,14.15
2019-05-15T00:25:24.263Z,13.35
2019-05-15T00:28:00.322Z,13.32
2019-05-15T00:30:38.489Z,15.15
2019-05-15T00:33:14.987Z,14.80
2019-05-15T00:35:50.945Z,13.70
2019-05-15T00:38:27.991Z,16.25
2019-05-15T00:41:04.200Z,14.28
2019-05-15T00:43:40.158Z,14.55
2019-05-15T00:46:18.325Z,13.85
2019-05-15T00:48:54.220Z,14.58
2019-05-15T00:51:30.288Z,14.80
2019-05-15T00:54:08.403Z,14.53
2019-05-15T00:56:44.587Z,13.28
2019-05-15T00:59:26.347Z,14.40
2019-05-15T01:01:59.409Z,13.83
2019-05-15T01:04:35.593Z,13.60
2019-05-15T01:07:11.552Z,13.93
2019-05-15T01:09:48.728Z,13.80
2019-05-15T01:12:24.786Z,14.58
2019-05-15T01:15:01.863Z,14.47
2019-05-15T01:17:39.776Z,15.10
2019-05-15T01:20:15.731Z,15.25
2019-05-15T01:22:51.676Z,16.05
2019-05-15T01:25:28.082Z,14.93
2019-05-15T01:28:04.211Z,15.05
2019-05-15T01:30:41.183Z,15.85
2019-05-15T01:33:18.923Z,15.48
2019-05-15T01:35:54.797Z,15.03
2019-05-15T01:38:30.807Z,15.58
2019-05-15T01:41:06.764Z,14.83
2019-05-15T01:43:43.844Z,14.95
2019-05-15T01:46:19.787Z,16.32
2019-05-15T01:48:55.759Z,15.15
2019-05-15T01:51:31.714Z,15.15
2019-05-15T01:54:09.113Z,15.48
2019-05-15T01:56:49.226Z,15.00
2019-05-15T01:59:24.292Z,15.90
2019-05-15T02:02:00.237Z,15.88
2019-05-15T02:04:36.195Z,15.65
2019-05-15T02:07:12.156Z,15.10
2019-05-15T02:09:49.238Z,15.43
2019-05-15T02:12:28.439Z,15.08
2019-05-15T02:15:08.660Z,15.43
2019-05-15T02:17:44.778Z,14.53
2019-05-15T02:20:20.661Z,15.03
2019-05-15T02:22:59.017Z,14.10
2019-05-15T02:25:34.402Z,14.75
2019-05-15T02:28:10.365Z,14.03
2019-05-15T02:30:50.028Z,14.15
2019-05-15T02:33:24.430Z,14.15
2019-05-15T02:36:00.401Z,13.93
2019-05-15T02:38:40.411Z,15.53
2019-05-15T02:41:14.292Z,13.15
2019-05-15T02:43:50.363Z,13.75
2019-05-15T02:46:26.362Z,15.00
2019-05-15T02:49:02.270Z,14.05
2019-05-15T02:51:40.018Z,12.45
2019-05-15T02:54:19.305Z,14.85
2019-05-15T02:56:53.872Z,18.60
2019-05-15T02:59:29.837Z,15.28
2019-05-15T03:02:05.887Z,16.67
2019-05-15T03:04:41.849Z,15.18
2019-05-15T03:07:19.307Z,13.50
2019-05-15T03:09:55.480Z,12.70
2019-05-15T03:12:31.442Z,12.73
2019-05-15T03:15:09.630Z,14.10
2019-05-15T03:17:45.107Z,13.45
2019-05-15T03:20:21.054Z,13.70
2019-05-15T03:22:59.691Z,16.95
2019-05-15T03:25:34.713Z,14.10
2019-05-15T03:28:11.141Z,17.42
2019-05-15T03:31:17.833Z,17.23
2019-05-15T03:33:29.968Z,21.25
2019-05-15T03:36:03.769Z,30.57
2019-05-15T03:38:40.020Z,17.77
2019-05-15T03:41:19.175Z,12.18
2019-05-15T03:43:53.671Z,16.77
2019-05-15T03:46:29.629Z,12.75
2019-05-15T03:49:08.440Z,12.63
2019-05-15T03:51:45.932Z,11.40
2019-05-15T03:54:20.972Z,12.90
2019-05-15T03:56:58.528Z,17.73
2019-05-15T03:59:34.727Z,16.55
2019-05-15T04:02:10.823Z,13.65
2019-05-15T04:04:49.829Z,15.65
2019-05-15T04:07:24.555Z,14.13
2019-05-15T04:10:00.525Z,14.10
2019-05-15T04:12:39.845Z,19.45
2019-05-15T04:15:14.471Z,18.00
2019-05-15T04:17:50.434Z,15.32
2019-05-15T04:20:29.467Z,15.43
2019-05-15T04:23:04.083Z,14.95
2019-05-15T04:25:40.478Z,15.08
2019-05-15T04:28:19.385Z,17.98
2019-05-15T04:30:55.336Z,12.23
2019-05-15T04:33:31.293Z,12.15
2019-05-15T04:36:09.790Z,17.10
2019-05-15T04:38:44.943Z,11.80
2019-05-15T04:41:20.893Z,12.25
2019-05-15T04:43:59.563Z,11.08
2019-05-15T04:46:34.436Z,10.65
2019-05-15T04:49:10.821Z,10.98
2019-05-15T04:51:49.816Z,10.63
2019-05-15T04:54:24.564Z,11.18
2019-05-15T04:57:00.527Z,13.22
2019-05-15T04:59:38.985Z,10.65
2019-05-15T05:02:24.208Z,16.00
2019-05-15T05:04:51.865Z,15.38
2019-05-15T05:07:29.585Z,10.82
2019-05-15T05:10:09.156Z,15.03
2019-05-15T05:12:43.944Z,15.50
2019-05-15T05:15:19.903Z,13.62
2019-05-15T05:17:58.424Z,15.32
2019-05-15T05:20:33.658Z,12.73
2019-05-15T05:23:09.602Z,12.13
2019-05-15T05:25:45.763Z,10.58
2019-05-15T05:28:21.721Z,10.48
2019-05-15T05:30:58.808Z,10.05
2019-05-15T05:33:35.372Z,12.18
2019-05-15T05:36:11.430Z,13.62
2019-05-15T05:38:49.312Z,12.00
2019-05-15T05:41:25.098Z,16.02
2019-05-15T05:44:01.039Z,10.48
2019-05-15T05:46:39.534Z,12.85
2019-05-15T05:49:14.910Z,15.15
2019-05-15T05:51:50.865Z,14.15
2019-05-15T05:54:28.832Z,14.73
2019-05-15T05:57:04.421Z,12.58
2019-05-15T05:59:51.187Z,17.32
2019-05-15T06:02:48.093Z,14.65
2019-05-15T06:05:31.533Z,11.22
2019-05-15T06:08:19.862Z,27.30
2019-05-15T06:11:05.677Z,17.07
2019-05-15T06:13:53.880Z,17.48
2019-05-15T06:16:32.708Z,13.28
2019-05-15T06:19:08.657Z,18.42
2019-05-15T06:21:54.569Z,16.05
2019-05-15T06:24:22.407Z,15.10
2019-05-15T06:26:58.727Z,16.52
2019-05-15T06:29:34.847Z,16.90
2019-05-15T06:32:10.804Z,20.27
2019-05-15T06:34:48.495Z,14.53
2019-05-15T06:37:24.664Z,15.25
2019-05-15T06:40:00.606Z,14.07
2019-05-15T06:42:38.953Z,19.35
2019-05-15T06:45:14.580Z,16.82
2019-05-15T06:47:51.551Z,14.85
2019-05-15T06:50:38.033Z,16.35
2019-05-15T06:53:13.189Z,16.37
2019-05-15T06:55:49.353Z,14.40
2019-05-15T06:58:25.426Z,16.10
2019-05-15T07:01:01.378Z,14.15
2019-05-15T07:03:39.221Z,14.63
2019-05-15T07:06:15.030Z,14.68
2019-05-15T07:08:50.987Z,17.45
2019-05-15T07:11:28.197Z,12.85
2019-05-15T07:14:04.846Z,13.83
2019-05-15T07:16:40.904Z,14.20
2019-05-15T07:19:19.022Z,12.73
2019-05-15T07:21:54.544Z,16.82
2019-05-15T07:24:30.501Z,14.85
2019-05-15T07:27:07.996Z,18.70
2019-05-15T07:29:44.065Z,15.45
2019-05-15T07:32:21.131Z,16.23
2019-05-15T07:34:57.886Z,17.82
2019-05-15T07:37:34.091Z,20.35
2019-05-15T07:40:10.808Z,18.20
2019-05-15T07:42:49.036Z,16.80
2019-05-15T07:45:24.604Z,15.65
2019-05-15T07:48:00.574Z,14.47
2019-05-15T07:50:38.816Z,14.73
2019-05-15T07:53:14.210Z,12.47
2019-05-15T07:55:51.404Z,12.82
2019-05-15T07:58:28.494Z,12.70
2019-05-15T08:01:05.503Z,12.60
2019-05-15T08:03:55.549Z,13.40
2019-05-15T08:06:19.424Z,11.53
2019-05-15T08:08:55.392Z,12.13
2019-05-15T08:11:31.341Z,15.40
2019-05-15T08:14:08.925Z,13.38
2019-05-15T08:16:45.103Z,16.57
2019-05-15T08:19:21.050Z,12.07
2019-05-15T08:21:58.175Z,12.13
2019-05-15T08:24:34.393Z,12.28
2019-05-15T08:27:10.280Z,12.33
2019-05-15T08:29:48.563Z,11.70
2019-05-15T08:32:24.003Z,12.63
2019-05-15T08:34:59.961Z,11.63
2019-05-15T08:37:38.308Z,11.97
2019-05-15T08:40:14.614Z,14.43
2019-05-15T08:42:57.047Z,12.05
2019-05-15T08:45:28.403Z,10.35
2019-05-15T08:48:04.657Z,10.95
2019-05-15T08:50:40.626Z,11.40
2019-05-15T08:53:18.968Z,11.12
2019-05-15T08:55:54.282Z,9.83
2019-05-15T08:58:30.337Z,10.18
2019-05-15T09:01:06.294Z,9.05
2019-05-15T09:03:42.238Z,9.48
2019-05-15T09:06:22.271Z,9.90
2019-05-15T09:08:58.343Z,10.30
2019-05-15T09:11:33.598Z,8.88
2019-05-15T09:14:09.493Z,9.08
2019-05-15T09:16:45.512Z,8.40
2019-05-15T09:19:21.456Z,8.70
2019-05-15T09:21:58.469Z,8.35
2019-05-15T09:24:34.711Z,6.97
2019-05-15T09:27:10.675Z,6.90
2019-05-15T09:29:48.411Z,7.25
2019-05-15T09:32:24.218Z,7.35
2019-05-15T09:35:00.177Z,6.47
2019-05-15T09:37:38.642Z,7.05
2019-05-15T09:40:15.001Z,6.87
2019-05-15T09:42:51.311Z,7.92
2019-05-15T09:45:28.604Z,7.60
2019-05-15T09:48:05.155Z,6.90
2019-05-15T09:50:41.224Z,6.40
2019-05-15T09:53:18.797Z,8.13
2019-05-15T09:55:54.891Z,8.80
2019-05-15T09:58:30.851Z,10.35
2019-05-15T10:01:08.545Z,9.05
2019-05-15T10:03:44.733Z,8.65
2019-05-15T10:06:20.998Z,12.33
2019-05-15T10:08:56.957Z,11.85
2019-05-15T10:11:32.870Z,8.65
2019-05-15T10:14:09.755Z,8.53
2019-05-15T10:16:48.124Z,11.78
2019-05-15T10:19:23.766Z,9.08
2019-05-15T10:21:59.843Z,9.60
2019-05-15T10:24:35.724Z,12.28
2019-05-15T10:27:11.687Z,9.90
2019-05-15T10:29:48.392Z,9.18
2019-05-15T10:32:24.579Z,10.45
2019-05-15T10:35:00.772Z,8.78
2019-05-15T10:37:38.993Z,8.90
2019-05-15T10:40:15.122Z,8.73
2019-05-15T10:42:51.149Z,9.00
2019-05-15T10:45:29.568Z,9.58
2019-05-15T10:48:05.183Z,8.00
2019-05-15T10:50:41.043Z,9.70
2019-05-15T10:53:18.879Z,9.35
2019-05-15T10:55:55.306Z,10.05
2019-05-15T10:58:31.253Z,9.45
2019-05-15T11:01:10.992Z,9.55
2019-05-15T11:03:44.948Z,9.88
2019-05-15T11:06:20.856Z,9.50
2019-05-15T11:08:58.390Z,9.75
2019-05-15T11:11:34.841Z,10.72
2019-05-15T11:14:10.733Z,13.45
2019-05-15T11:16:48.619Z,14.38
2019-05-15T11:19:24.336Z,15.32
2019-05-15T11:22:00.293Z,17.73
2019-05-15T11:24:38.499Z,19.05
2019-05-15T11:27:14.971Z,20.17
2019-05-15T11:29:50.922Z,23.38
2019-05-15T11:32:29.201Z,22.95
2019-05-15T11:35:06.288Z,24.25
2019-05-15T11:37:46.477Z,24.80
2019-05-15T11:40:20.873Z,24.52
2019-05-15T11:42:56.813Z,25.30
2019-05-15T11:45:32.977Z,28.32
2019-05-15T11:48:09.212Z,27.85
2019-05-15T11:50:45.108Z,28.52
2019-05-15T11:53:21.021Z,32.60
2019-05-15T11:55:56.969Z,33.50
2019-05-15T11:58:32.875Z,32.55
2019-05-15T12:01:08.831Z,33.55
2019-05-15T12:03:44.750Z,32.93
2019-05-15T12:06:22.952Z,35.15
2019-05-15T12:08:59.222Z,31.35
2019-05-15T12:11:37.917Z,32.83
2019-05-15T12:14:13.275Z,33.18
2019-05-15T12:17:05.116Z,34.48
2019-05-15T12:19:29.204Z,35.50
2019-05-15T12:22:04.481Z,36.63
2019-05-15T12:24:41.580Z,31.10
2019-05-15T12:27:18.362Z,33.05
2019-05-15T12:29:54.516Z,33.25
2019-05-15T12:32:36.038Z,36.60
2019-05-15T12:35:08.207Z,37.35
2019-05-15T12:37:44.124Z,36.98
2019-05-15T13:01:21.918Z,33.13
2019-05-15T13:03:58.060Z,36.13
2019-05-15T13:06:47.399Z,33.13
2019-05-15T13:09:11.588Z,35.33
2019-05-15T13:11:48.477Z,36.83
2019-05-15T13:14:24.609Z,44.38
2019-05-15T13:17:00.480Z,44.15
2019-05-15T13:19:38.680Z,42.73
2019-05-15T13:22:18.093Z,38.95
2019-05-15T13:24:51.593Z,41.42
2019-05-15T13:27:27.700Z,42.08
2019-05-15T13:30:04.539Z,43.02
2019-05-15T13:32:41.235Z,39.73
2019-05-15T13:35:18.408Z,45.50
2019-05-15T13:37:54.416Z,43.87
2019-05-15T13:40:37.126Z,41.10
2019-05-15T13:43:08.466Z,43.33
2019-05-15T13:45:44.612Z,43.20
2019-05-15T13:48:20.650Z,44.08
2019-05-15T13:50:58.796Z,55.33
2019-05-15T13:53:34.201Z,46.45
2019-05-15T13:56:10.152Z,41.23
2019-05-15T13:58:48.124Z,37.63
2019-05-15T14:01:23.693Z,48.48
2019-05-15T14:03:59.665Z,40.28
2019-05-15T14:06:37.816Z,57.65
2019-05-15T14:09:13.226Z,40.95
2019-05-15T14:11:49.782Z,40.17
2019-05-15T14:14:25.828Z,40.03
2019-05-15T14:17:01.748Z,40.80
2019-05-15T14:19:38.652Z,45.38
2019-05-15T14:22:14.734Z,51.90
2019-05-15T14:24:50.675Z,54.83
2019-05-15T14:27:29.004Z,50.95
2019-05-15T14:30:09.576Z,42.15
2019-05-15T14:32:48.256Z,42.60
2019-05-15T14:35:23.068Z,49.83
2019-05-15T14:38:06.357Z,53.78
2019-05-15T14:40:36.590Z,49.40
2019-05-15T14:43:12.604Z,44.35
2019-05-15T14:45:48.551Z,47.10
2019-05-15T14:48:24.788Z,49.48
2019-05-15T14:51:00.692Z,44.95
2019-05-15T14:53:38.569Z,45.08
2019-05-15T14:56:15.200Z,41.98
2019-05-15T14:58:51.233Z,42.80
2019-05-15T15:01:27.187Z,44.65
2019-05-15T15:04:04.157Z,42.48
2019-05-15T15:06:40.249Z,43.70
2019-05-15T15:09:16.288Z,45.12
2019-05-15T15:11:52.238Z,41.92
2019-05-15T15:14:28.582Z,39.73
2019-05-15T15:17:04.859Z,45.30
2019-05-15T15:19:40.842Z,44.48
2019-05-15T15:22:16.785Z,43.28
2019-05-15T15:24:52.699Z,41.20
2019-05-15T15:27:28.607Z,44.60
2019-05-15T15:30:09.170Z,45.17
2019-05-15T15:32:44.480Z,46.18
2019-05-15T15:35:20.387Z,43.75
2019-05-15T15:37:58.062Z,46.73
2019-05-15T15:40:34.122Z,47.03
2019-05-15T15:43:10.002Z,51.35
2019-05-15T15:45:48.445Z,50.60
2019-05-15T15:48:24.505Z,50.55
2019-05-15T15:51:00.433Z,48.87
2019-05-15T15:53:36.339Z,51.53
2019-05-15T15:56:13.916Z,51.98
2019-05-15T15:58:49.835Z,62.17
2019-05-15T16:01:27.780Z,61.95
2019-05-15T16:04:03.386Z,57.23
2019-05-15T16:06:39.290Z,58.65
2019-05-15T16:09:15.499Z,55.20
2019-05-15T16:11:53.196Z,54.88
2019-05-15T16:14:29.109Z,59.15
2019-05-15T16:17:05.375Z,57.05
2019-05-15T16:19:45.552Z,56.88
2019-05-15T16:22:28.365Z,59.08
2019-05-15T16:25:09.249Z,69.77
2019-05-15T16:27:43.840Z,65.35
2019-05-15T16:30:21.006Z,54.85
2019-05-15T16:33:03.038Z,56.08
2019-05-15T16:35:39.202Z,59.80
2019-05-15T16:38:16.117Z,52.90
2019-05-15T16:40:52.067Z,58.30
2019-05-15T16:43:28.567Z,57.67
2019-05-15T16:46:04.724Z,55.05
2019-05-15T16:48:42.516Z,55.38
2019-05-15T16:51:18.383Z,56.10
2019-05-15T16:53:54.329Z,55.92
2019-05-15T16:56:30.223Z,56.85
2019-05-15T16:59:06.152Z,56.15
2019-05-15T17:01:42.328Z,58.83
2019-05-15T17:04:18.445Z,59.27
2019-05-15T17:06:54.440Z,59.40
2019-05-15T17:09:30.374Z,57.75
2019-05-15T17:12:08.739Z,57.85
2019-05-15T17:14:43.974Z,57.73
2019-05-15T17:17:19.929Z,58.08
2019-05-15T17:19:57.889Z,60.40
2019-05-15T17:22:33.584Z,58.05
2019-05-15T17:25:10.039Z,59.58
2019-05-15T17:27:46.006Z,66.65
2019-05-15T17:30:22.170Z,76.45
2019-05-15T17:32:58.932Z,83.67
2019-05-15T17:35:34.902Z,68.33
2019-05-15T17:38:10.850Z,60.33
2019-05-15T17:40:48.463Z,60.40
2019-05-15T17:43:24.615Z,63.52
2019-05-15T17:46:00.567Z,56.33
2019-05-15T17:48:38.694Z,63.30
2019-05-15T17:51:14.208Z,56.73
2019-05-15T17:53:51.495Z,51.73
2019-05-15T17:56:28.426Z,52.27
2019-05-15T17:59:04.535Z,50.70
2019-05-15T18:01:40.504Z,50.75
2019-05-15T18:04:18.764Z,52.93
2019-05-15T18:06:54.156Z,52.05
2019-05-15T18:09:30.107Z,46.80
2019-05-15T18:12:10.693Z,39.92
2019-05-15T18:14:43.756Z,45.58
2019-05-15T18:17:19.723Z,37.00
2019-05-15T18:19:57.966Z,42.38
2019-05-15T18:22:33.363Z,38.58
2019-05-15T18:25:10.049Z,40.92
2019-05-15T18:27:48.089Z,40.38
2019-05-15T18:30:23.703Z,37.45
2019-05-15T18:33:00.071Z,36.30
2019-05-15T18:35:38.471Z,33.58
2019-05-15T18:38:14.633Z,36.58
2019-05-15T18:40:50.709Z,31.50
2019-05-15T18:43:28.548Z,32.65
2019-05-15T18:46:04.461Z,30.15
2019-05-15T18:48:40.403Z,31.10
2019-05-15T18:51:17.500Z,32.08
2019-05-15T18:53:53.555Z,32.13
2019-05-15T18:56:30.638Z,33.55
2019-05-15T18:59:08.478Z,33.80
2019-05-15T19:01:44.190Z,32.40
2019-05-15T19:04:20.123Z,33.10
2019-05-15T19:06:58.300Z,31.45
2019-05-15T19:09:34.506Z,31.17
2019-05-15T19:12:10.465Z,30.92
2019-05-15T19:14:49.208Z,31.17
2019-05-15T19:17:24.116Z,31.50
2019-05-15T19:20:00.075Z,30.08
2019-05-15T19:22:40.538Z,32.30
2019-05-15T19:25:13.929Z,30.12
2019-05-15T19:27:49.998Z,29.90
2019-05-15T19:30:28.457Z,31.82
2019-05-15T19:33:03.754Z,30.85
2019-05-15T19:35:40.827Z,31.12
2019-05-15T19:38:18.588Z,31.07
2019-05-15T19:40:54.498Z,35.05
2019-05-15T19:43:31.156Z,35.08
2019-05-15T19:46:07.990Z,35.98
2019-05-15T19:48:44.110Z,33.63
2019-05-15T19:51:20.059Z,33.92
2019-05-15T19:53:58.667Z,37.60
2019-05-15T19:56:35.045Z,35.03
2019-05-15T19:59:10.998Z,38.83
2019-05-15T20:01:48.604Z,38.65
2019-05-15T20:04:24.742Z,39.42
2019-05-15T20:07:00.802Z,39.70
2019-05-15T20:09:38.330Z,39.75
2019-05-15T20:12:14.569Z,37.17
2019-05-15T20:14:51.150Z,39.25
2019-05-15T20:17:27.713Z,38.67
2019-05-15T20:20:04.981Z,39.23
2019-05-15T20:22:42.597Z,38.38
2019-05-15T20:25:18.742Z,38.67
2019-05-15T20:27:54.711Z,41.35
2019-05-15T20:30:30.657Z,40.38
2019-05-15T20:33:08.933Z,39.48
2019-05-15T20:35:44.628Z,40.70
2019-05-15T20:38:20.574Z,37.93
2019-05-15T20:40:59.480Z,41.53
2019-05-15T20:43:34.443Z,40.45
2019-05-15T20:46:10.387Z,41.30
2019-05-15T20:48:48.583Z,42.20
2019-05-15T20:51:24.045Z,40.73
2019-05-15T20:53:59.998Z,43.15
2019-05-15T20:56:38.289Z,42.25
2019-05-15T20:59:13.651Z,42.90
2019-05-15T21:01:50.799Z,46.13
2019-05-15T21:04:28.088Z,52.30
2019-05-15T21:07:04.296Z,50.88
2019-05-15T21:09:40.448Z,46.70
2019-05-15T21:12:17.939Z,47.43
2019-05-15T21:14:54.110Z,46.50
2019-05-15T21:17:30.069Z,48.78
2019-05-15T21:20:09.048Z,49.73
2019-05-15T21:22:44.224Z,49.00
2019-05-15T21:25:20.178Z,50.52
2019-05-15T21:27:56.134Z,49.15
2019-05-15T21:30:32.101Z,47.62
2019-05-15T21:33:08.669Z,49.60
2019-05-15T21:35:44.823Z,48.65
2019-05-15T21:38:21.334Z,50.15
2019-05-15T21:40:58.633Z,48.35
2019-05-15T21:43:34.843Z,49.30
2019-05-15T21:46:10.800Z,50.23
2019-05-15T21:48:48.710Z,52.93
2019-05-15T21:51:24.461Z,50.35
2019-05-15T21:54:01.181Z,51.02
2019-05-15T21:56:38.600Z,47.75
2019-05-15T21:59:14.790Z,49.67
2019-05-15T22:01:50.856Z,50.23
2019-05-15T22:04:28.122Z,49.75
2019-05-15T22:07:08.851Z,50.23
2019-05-15T22:09:43.837Z,48.92
2019-05-15T22:12:21.024Z,49.18
2019-05-15T22:14:58.096Z,51.37
2019-05-15T22:17:34.274Z,47.33
2019-05-15T22:20:10.623Z,47.30
2019-05-15T22:22:50.387Z,47.53
2019-05-15T22:25:23.459Z,47.62
2019-05-15T22:27:59.426Z,48.13
2019-05-15T22:30:35.583Z,45.23
2019-05-15T22:33:11.955Z,46.98
2019-05-15T22:35:48.839Z,45.70
2019-05-15T22:38:28.393Z,45.17
2019-05-15T22:41:03.906Z,43.02
2019-05-15T22:43:39.861Z,43.20
2019-05-15T22:46:18.435Z,42.38
2019-05-15T22:48:53.414Z,41.15
2019-05-15T22:51:29.993Z,37.38
2019-05-15T22:54:08.488Z,39.20
2019-05-15T22:56:45.083Z,37.33
2019-05-15T22:59:21.027Z,35.35
2019-05-15T23:01:58.161Z,33.98
2019-05-15T23:04:34.271Z,32.03
2019-05-15T23:07:10.341Z,30.72
2019-05-15T23:09:51.257Z,29.87
2019-05-15T23:12:28.708Z,28.38
2019-05-15T23:15:05.403Z,28.75
2019-05-15T23:17:48.736Z,25.70
2019-05-15T23:20:25.791Z,27.55
2019-05-15T23:23:01.735Z,27.13
2019-05-15T23:25:38.102Z,27.40
2019-05-15T23:28:14.262Z,27.37
2019-05-15T23:30:50.218Z,28.65
2019-05-15T23:33:28.105Z,28.90
2019-05-15T23:36:03.874Z,30.50
2019-05-15T23:38:39.839Z,30.45
2019-05-15T23:41:15.888Z,31.70
2019-05-15T23:43:51.841Z,35.33
2019-05-15T23:46:28.832Z,38.45
2019-05-15T23:49:05.003Z,38.75
2019-05-15T23:54:15.055Z,36.83
2019-05-15T23:56:51.029Z,36.50
2019-05-15T23:59:28.197Z,33.53
